Time;durP1;ratioP1;P1;durP2;ratioP2;P2;SDS_P1;SDS_P2;PMS_P1;PMS_P2;Temp;Humidity;BMP_temperature;BMP_pressure;BME280_temperature;BME280_humidity;BME280_pressure;Samples;Min_cycle;Max_cycle;Signal;HPM_P1;HPM_P2
2024/01/10 00:00:23;;;;;;;47.05;44.53;;;;;;;;;;4114207;28;20082;-58
2024/01/10 00:02:24;;;;;;;46.30;43.75;;;;;;;;;;4114620;28;20054;-57
2024/01/10 00:04:26;;;;;;;43.17;41.00;;;;;;;;;;4115513;28;20050;-58
2024/01/10 00:06:28;;;;;;;49.35;46.78;;;;;;;;;;4115247;28;20047;-57
2024/01/10 00:08:29;;;;;;;42.83;40.57;;;;;;;;;;4115179;28;20365;-57
2024/01/10 00:10:31;;;;;;;45.13;42.65;;;;;;;;;;4114221;28;20333;-58
2024/01/10 00:12:36;;;;;;;43.60;41.33;;;;;;;;;;4115489;28;20471;-56
2024/01/10 00:14:38;;;;;;;41.63;39.63;;;;;;;;;;4115643;28;20419;-58
2024/01/10 00:16:39;;;;;;;44.23;41.80;;;;;;;;;;4114011;28;20142;-58
2024/01/10 00:18:41;;;;;;;44.20;41.67;;;;;;;;;;4115309;28;20039;-58
2024/01/10 00:20:43;;;;;;;44.80;42.13;;;;;;;;;;4115988;28;20046;-58
2024/01/10 00:22:44;;;;;;;45.45;43.05;;;;;;;;;;4118380;28;20137;-58
2024/01/10 00:24:46;;;;;;;44.90;42.37;;;;;;;;;;4118748;28;20126;-58
2024/01/10 00:26:48;;;;;;;40.88;38.55;;;;;;;;;;4118536;28;20039;-58
2024/01/10 00:28:49;;;;;;;46.30;43.80;;;;;;;;;;4118395;28;20388;-58
2024/01/10 00:30:51;;;;;;;42.13;39.95;;;;;;;;;;4118233;28;20042;-58
2024/01/10 00:32:52;;;;;;;48.43;45.63;;;;;;;;;;4118013;28;20042;-57
2024/01/10 00:34:54;;;;;;;44.15;41.53;;;;;;;;;;4117667;28;20049;-58
2024/01/10 00:36:56;;;;;;;44.88;42.47;;;;;;;;;;4117020;28;20065;-58
2024/01/10 00:38:57;;;;;;;46.70;44.08;;;;;;;;;;4132574;28;20478;-58
2024/01/10 00:40:59;;;;;;;43.80;41.25;;;;;;;;;;4117616;28;20534;-58
2024/01/10 00:43:01;;;;;;;46.50;43.85;;;;;;;;;;4117803;28;20047;-58
2024/01/10 00:45:03;;;;;;;44.58;42.00;;;;;;;;;;4131242;28;20430;-57
2024/01/10 00:47:04;;;;;;;45.00;42.50;;;;;;;;;;4133780;28;20038;-57
2024/01/10 00:49:06;;;;;;;47.95;44.95;;;;;;;;;;4134251;28;20623;-58
2024/01/10 00:51:08;;;;;;;46.38;43.72;;;;;;;;;;4134307;28;20046;-57
2024/01/10 00:53:10;;;;;;;;;;;;;;;;;;4134523;28;20097;-57
2024/01/10 00:55:12;;;;;;;48.05;45.20;;;;;;;;;;4133794;28;19929;-57
2024/01/10 00:57:14;;;;;;;48.67;45.60;;;;;;;;;;4134343;28;20085;-58
2024/01/10 00:59:16;;;;;;;48.88;46.08;;;;;;;;;;4127799;28;20038;-58
2024/01/10 01:01:17;;;;;;;48.67;45.33;;;;;;;;;;4117904;28;20035;-58
2024/01/10 01:03:19;;;;;;;50.50;47.70;;;;;;;;;;4117428;28;20298;-58
2024/01/10 01:05:21;;;;;;;49.80;46.72;;;;;;;;;;4118176;28;20063;-57
2024/01/10 01:07:23;;;;;;;50.03;47.10;;;;;;;;;;4118060;28;20043;-57
2024/01/10 01:09:25;;;;;;;47.42;44.58;;;;;;;;;;4117643;28;20105;-57
2024/01/10 01:11:26;;;;;;;45.45;42.90;;;;;;;;;;4117702;28;20074;-57
2024/01/10 01:13:28;;;;;;;42.73;40.30;;;;;;;;;;4117856;28;20046;-58
2024/01/10 01:15:30;;;;;;;45.25;42.85;;;;;;;;;;4117752;28;20305;-57
2024/01/10 01:17:31;;;;;;;49.92;47.30;;;;;;;;;;4117640;28;20050;-58
2024/01/10 01:19:33;;;;;;;44.22;41.67;;;;;;;;;;4117940;28;20480;-58
2024/01/10 01:21:35;;;;;;;45.30;42.73;;;;;;;;;;4117561;28;20077;-58
2024/01/10 01:23:36;;;;;;;42.17;40.00;;;;;;;;;;4117641;28;20487;-58
2024/01/10 01:25:43;;;;;;;42.20;40.00;;;;;;;;;;4117840;28;20039;-58
2024/01/10 01:27:44;;;;;;;43.10;40.63;;;;;;;;;;4117620;28;20125;-58
2024/01/10 01:29:46;;;;;;;42.88;40.67;;;;;;;;;;4117716;28;20038;-58
2024/01/10 01:31:48;;;;;;;44.78;41.70;;;;;;;;;;4116996;28;20085;-58
2024/01/10 01:33:49;;;;;;;42.83;40.60;;;;;;;;;;4117350;28;20049;-59
2024/01/10 01:35:53;;;;;;;39.60;37.13;;;;;;;;;;4117378;28;20755;-58
2024/01/10 01:37:54;;;;;;;42.35;40.13;;;;;;;;;;4117382;28;20090;-58
2024/01/10 01:39:56;;;;;;;41.63;39.77;;;;;;;;;;4107513;28;20043;-58
2024/01/10 01:41:58;;;;;;;43.80;41.30;;;;;;;;;;4116189;28;20321;-58
2024/01/10 01:43:59;;;;;;;43.22;41.17;;;;;;;;;;4122269;28;20049;-58
2024/01/10 01:46:02;;;;;;;44.90;42.58;;;;;;;;;;4133229;28;20081;-58
2024/01/10 01:48:05;;;;;;;41.28;39.38;;;;;;;;;;4133175;28;20121;-58
2024/01/10 01:50:07;;;;;;;40.40;38.55;;;;;;;;;;4133193;28;20797;-58
2024/01/10 01:52:10;;;;;;;43.00;41.10;;;;;;;;;;4116174;28;20101;-58
2024/01/10 01:54:12;;;;;;;44.55;41.90;;;;;;;;;;4133657;28;20049;-58
2024/01/10 01:56:14;;;;;;;42.17;40.37;;;;;;;;;;4133529;28;20040;-58
2024/01/10 01:58:16;;;;;;;38.88;37.17;;;;;;;;;;4133069;28;20301;-58
2024/01/10 02:00:18;;;;;;;39.33;37.47;;;;;;;;;;4118423;28;20477;-58
2024/01/10 02:02:20;;;;;;;47.97;45.33;;;;;;;;;;4115480;28;20142;-58
2024/01/10 02:04:21;;;;;;;46.80;43.67;;;;;;;;;;4116759;28;20439;-58
2024/01/10 02:06:23;;;;;;;44.95;42.33;;;;;;;;;;4116974;28;20089;-58
2024/01/10 02:08:25;;;;;;;47.15;43.97;;;;;;;;;;4116664;28;20038;-58
2024/01/10 02:10:27;;;;;;;47.15;44.13;;;;;;;;;;4116594;28;20035;-58
2024/01/10 02:12:28;;;;;;;43.20;40.67;;;;;;;;;;4116819;28;20105;-57
2024/01/10 02:14:30;;;;;;;44.20;41.85;;;;;;;;;;4116774;28;20470;-58
2024/01/10 02:16:32;;;;;;;48.47;45.47;;;;;;;;;;4116999;28;20101;-58
2024/01/10 02:18:34;;;;;;;48.63;45.63;;;;;;;;;;4116322;28;20097;-58
2024/01/10 02:20:36;;;;;;;48.97;46.17;;;;;;;;;;4116263;28;20093;-58
2024/01/10 02:22:38;;;;;;;45.33;42.92;;;;;;;;;;4116460;28;20101;-58
2024/01/10 02:24:40;;;;;;;41.33;39.10;;;;;;;;;;4116588;28;20126;-58
2024/01/10 02:26:42;;;;;;;42.63;40.40;;;;;;;;;;4116660;28;20039;-58
2024/01/10 02:28:43;;;;;;;40.38;38.40;;;;;;;;;;4115345;28;20038;-57
2024/01/10 02:30:47;;;;;;;39.50;37.50;;;;;;;;;;4116362;28;20126;-59
2024/01/10 02:32:49;;;;;;;41.10;39.15;;;;;;;;;;4115129;28;20142;-58
2024/01/10 02:34:50;;;;;;;38.33;36.27;;;;;;;;;;4115171;28;20050;-58
2024/01/10 02:36:52;;;;;;;39.85;37.95;;;;;;;;;;4114828;28;20153;-58
2024/01/10 02:38:53;;;;;;;36.90;35.10;;;;;;;;;;4114956;28;20043;-57
2024/01/10 02:40:56;;;;;;;39.00;37.27;;;;;;;;;;4114685;28;20047;-57
2024/01/10 02:42:57;;;;;;;;;;;;;;;;;;4114821;28;20122;-57
2024/01/10 02:44:59;;;;;;;40.25;38.00;;;;;;;;;;4125915;28;19928;-58
2024/01/10 02:47:01;;;;;;;40.25;38.25;;;;;;;;;;4131055;28;20046;-58
2024/01/10 02:49:03;;;;;;;40.33;38.22;;;;;;;;;;4130970;28;20042;-58
2024/01/10 02:51:05;;;;;;;36.42;34.45;;;;;;;;;;4131403;28;20520;-58
2024/01/10 02:53:06;;;;;;;39.95;38.15;;;;;;;;;;4132268;28;20100;-58
2024/01/10 02:55:08;;;;;;;41.70;39.63;;;;;;;;;;4132275;28;20047;-58
2024/01/10 02:57:10;;;;;;;43.33;41.30;;;;;;;;;;4132230;28;20045;-58
2024/01/10 02:59:11;;;;;;;40.90;39.15;;;;;;;;;;4132614;28;20050;-57
2024/01/10 03:01:13;;;;;;;42.17;39.90;;;;;;;;;;4117039;28;20531;-57
2024/01/10 03:03:15;;;;;;;39.42;37.50;;;;;;;;;;4115761;28;20046;-58
2024/01/10 03:05:17;;;;;;;40.97;38.75;;;;;;;;;;4116273;28;20043;-58
2024/01/10 03:07:19;;;;;;;42.65;40.38;;;;;;;;;;4115693;28;20498;-58
2024/01/10 03:09:22;;;;;;;40.20;38.05;;;;;;;;;;4115852;28;20423;-58
2024/01/10 03:11:23;;;;;;;39.25;37.28;;;;;;;;;;4115902;28;20039;-58
2024/01/10 03:13:25;;;;;;;40.53;38.47;;;;;;;;;;4116184;28;20070;-58
2024/01/10 03:15:27;;;;;;;40.97;38.27;;;;;;;;;;4114552;28;20059;-58
2024/01/10 03:17:28;;;;;;;39.42;37.55;;;;;;;;;;4116166;28;20067;-58
2024/01/10 03:19:30;;;;;;;38.80;36.92;;;;;;;;;;4115811;28;20046;-57
2024/01/10 03:21:32;;;;;;;38.75;36.85;;;;;;;;;;4115774;28;20450;-58
2024/01/10 03:23:33;;;;;;;41.38;39.05;;;;;;;;;;4115786;28;20039;-57
2024/01/10 03:25:35;;;;;;;42.57;40.47;;;;;;;;;;4115957;28;20121;-58
2024/01/10 03:27:37;;;;;;;43.37;41.17;;;;;;;;;;4115744;28;20050;-57
2024/01/10 03:29:38;;;;;;;37.20;35.45;;;;;;;;;;4115916;28;20286;-58
2024/01/10 03:31:40;;;;;;;44.72;42.10;;;;;;;;;;4115855;28;20090;-58
2024/01/10 03:33:41;;;;;;;43.50;41.17;;;;;;;;;;4115919;28;20046;-58
2024/01/10 03:35:43;;;;;;;39.67;37.73;;;;;;;;;;4115633;28;20499;-58
2024/01/10 03:37:45;;;;;;;36.13;34.55;;;;;;;;;;4115515;28;20286;-58
2024/01/10 03:39:47;;;;;;;39.33;37.60;;;;;;;;;;4115504;28;20069;-58
2024/01/10 03:41:48;;;;;;;41.35;39.55;;;;;;;;;;4115544;28;20039;-57
2024/01/10 03:43:50;;;;;;;40.22;38.42;;;;;;;;;;4119288;28;20046;-58
2024/01/10 03:45:52;;;;;;;40.25;38.50;;;;;;;;;;4131742;28;20042;-58
2024/01/10 03:47:53;;;;;;;39.80;37.83;;;;;;;;;;4131792;28;20450;-58
2024/01/10 03:49:55;;;;;;;36.17;34.38;;;;;;;;;;4131529;28;20073;-57
2024/01/10 03:51:57;;;;;;;38.97;37.20;;;;;;;;;;4131529;28;20108;-58
2024/01/10 03:53:58;;;;;;;37.90;36.10;;;;;;;;;;4131537;28;20119;-58
2024/01/10 03:56:03;;;;;;;37.90;36.28;;;;;;;;;;4128261;28;20050;-58
2024/01/10 03:58:05;;;;;;;39.60;37.75;;;;;;;;;;4115612;28;20135;-58
2024/01/10 04:00:07;;;;;;;37.87;36.23;;;;;;;;;;4115519;28;20081;-57
2024/01/10 04:02:08;;;;;;;36.70;35.15;;;;;;;;;;4114570;28;20495;-58
2024/01/10 04:04:10;;;;;;;38.95;37.15;;;;;;;;;;4115201;28;20043;-58
2024/01/10 04:06:11;;;;;;;38.40;36.38;;;;;;;;;;4115635;28;20090;-58
2024/01/10 04:08:13;;;;;;;38.80;36.77;;;;;;;;;;4115369;28;20043;-58
2024/01/10 04:10:19;;;;;;;35.13;33.80;;;;;;;;;;4115374;28;20297;-57
2024/01/10 04:12:20;;;;;;;37.93;36.43;;;;;;;;;;4115361;28;20043;-58
2024/01/10 04:14:22;;;;;;;38.88;37.17;;;;;;;;;;4115342;28;20074;-58
2024/01/10 04:16:24;;;;;;;38.00;36.08;;;;;;;;;;4115737;28;20042;-58
2024/01/10 04:18:25;;;;;;;38.63;36.75;;;;;;;;;;4115547;28;20490;-58
2024/01/10 04:20:27;;;;;;;38.13;36.53;;;;;;;;;;4115388;28;20039;-58
2024/01/10 04:22:29;;;;;;;37.17;35.37;;;;;;;;;;4115425;28;20073;-58
2024/01/10 04:24:30;;;;;;;40.67;38.78;;;;;;;;;;4115139;28;20317;-58
2024/01/10 04:26:32;;;;;;;37.35;35.60;;;;;;;;;;4115131;28;20474;-58
2024/01/10 04:28:33;;;;;;;36.15;34.70;;;;;;;;;;4115338;28;20046;-57
2024/01/10 04:30:35;;;;;;;36.72;35.03;;;;;;;;;;4115124;28;20558;-58
2024/01/10 04:32:37;;;;;;;38.40;36.30;;;;;;;;;;4115180;28;20054;-58
2024/01/10 04:34:38;;;;;;;40.00;38.05;;;;;;;;;;4115418;28;20293;-58
2024/01/10 04:36:40;;;;;;;38.03;36.13;;;;;;;;;;4115337;28;20050;-58
2024/01/10 04:38:42;;;;;;;41.88;39.42;;;;;;;;;;4115074;28;20077;-59
2024/01/10 04:40:43;;;;;;;40.05;37.75;;;;;;;;;;4115273;28;20611;-58
2024/01/10 04:42:46;;;;;;;40.30;38.17;;;;;;;;;;4115234;28;20049;-58
2024/01/10 04:44:47;;;;;;;41.88;39.35;;;;;;;;;;4126323;28;20046;-58
2024/01/10 04:46:49;;;;;;;39.83;37.65;;;;;;;;;;4131064;28;20489;-58
2024/01/10 04:48:50;;;;;;;40.85;38.72;;;;;;;;;;4131013;28;20568;-58
2024/01/10 04:50:52;;;;;;;42.97;40.08;;;;;;;;;;4131131;28;20418;-58
2024/01/10 04:52:54;;;;;;;43.30;41.22;;;;;;;;;;4122652;28;20074;-58
2024/01/10 04:54:55;;;;;;;43.53;41.03;;;;;;;;;;4115051;28;20455;-58
2024/01/10 04:56:57;;;;;;;47.38;45.08;;;;;;;;;;4114998;28;20194;-58
2024/01/10 04:58:59;;;;;;;42.25;40.08;;;;;;;;;;4114788;28;20053;-58
2024/01/10 05:01:01;;;;;;;39.20;37.40;;;;;;;;;;4114702;28;20525;-58
2024/01/10 05:03:03;;;;;;;40.05;38.10;;;;;;;;;;4114658;28;20055;-58
2024/01/10 05:05:05;;;;;;;43.38;40.88;;;;;;;;;;4115399;28;20046;-58
2024/01/10 05:07:07;;;;;;;39.50;37.75;;;;;;;;;;4115879;28;20042;-58
2024/01/10 05:09:09;;;;;;;41.10;39.20;;;;;;;;;;4117708;28;20503;-57
2024/01/10 05:11:11;;;;;;;41.85;39.67;;;;;;;;;;4117675;28;20062;-58
2024/01/10 05:13:13;;;;;;;41.17;39.05;;;;;;;;;;4117473;28;20137;-58
2024/01/10 05:15:14;;;;;;;39.05;36.90;;;;;;;;;;4117018;28;20042;-58
2024/01/10 05:17:16;;;;;;;40.35;37.45;;;;;;;;;;4116815;28;20097;-58
2024/01/10 05:19:17;;;;;;;42.03;40.03;;;;;;;;;;4117715;28;20046;-58
2024/01/10 05:21:20;;;;;;;41.10;39.05;;;;;;;;;;4117221;28;20039;-58
2024/01/10 05:23:21;;;;;;;40.50;38.33;;;;;;;;;;4117848;28;20097;-58
2024/01/10 05:25:23;;;;;;;42.72;40.42;;;;;;;;;;4117492;28;20043;-58
2024/01/10 05:27:25;;;;;;;37.57;35.73;;;;;;;;;;4117709;28;20097;-58
2024/01/10 05:29:27;;;;;;;41.08;38.85;;;;;;;;;;4117460;28;20039;-58
2024/01/10 05:31:29;;;;;;;35.45;33.88;;;;;;;;;;4117435;28;20533;-58
2024/01/10 05:33:31;;;;;;;41.42;39.40;;;;;;;;;;4117239;28;20082;-58
2024/01/10 05:35:34;;;;;;;37.00;35.40;;;;;;;;;;4117454;28;20043;-58
2024/01/10 05:37:36;;;;;;;40.90;38.95;;;;;;;;;;4110535;28;20039;-58
2024/01/10 05:39:37;;;;;;;39.80;37.97;;;;;;;;;;4101408;29;20039;-58
2024/01/10 05:41:39;;;;;;;40.67;38.42;;;;;;;;;;4101395;29;20139;-59
2024/01/10 05:43:43;;;;;;;42.70;40.60;;;;;;;;;;4119884;28;20049;-58
2024/01/10 05:45:45;;;;;;;37.80;36.13;;;;;;;;;;4133438;28;20050;-58
2024/01/10 05:47:48;;;;;;;38.90;36.80;;;;;;;;;;4133529;28;20088;-58
2024/01/10 05:49:50;;;;;;;39.72;37.60;;;;;;;;;;4118219;28;20074;-58
2024/01/10 05:51:51;;;;;;;38.33;36.35;;;;;;;;;;4117054;28;20055;-58
2024/01/10 05:53:53;;;;;;;39.42;37.42;;;;;;;;;;4117322;28;20102;-58
2024/01/10 05:55:55;;;;;;;42.10;39.90;;;;;;;;;;4116954;28;20109;-58
2024/01/10 05:57:56;;;;;;;43.10;40.63;;;;;;;;;;4117169;28;20414;-58
2024/01/10 05:59:58;;;;;;;39.33;37.40;;;;;;;;;;4117057;28;20348;-58
2024/01/10 06:01:59;;;;;;;43.83;41.15;;;;;;;;;;4116575;28;20074;-58
2024/01/10 06:04:01;;;;;;;44.08;41.38;;;;;;;;;;4117193;28;20043;-58
2024/01/10 06:06:04;;;;;;;43.63;41.40;;;;;;;;;;4116998;28;20071;-58
2024/01/10 06:08:06;;;;;;;42.25;39.95;;;;;;;;;;4116952;28;20126;-58
2024/01/10 06:10:08;;;;;;;;;;;;;;;;;;4116696;28;20585;-57
2024/01/10 06:12:09;;;;;;;45.33;42.53;;;;;;;;;;4116887;28;19926;-58
2024/01/10 06:14:11;;;;;;;44.38;41.72;;;;;;;;;;4116686;28;20519;-58
2024/01/10 06:16:13;;;;;;;45.63;43.03;;;;;;;;;;4116928;28;20047;-58
2024/01/10 06:18:14;;;;;;;40.75;38.83;;;;;;;;;;4117006;28;20289;-59
2024/01/10 06:20:17;;;;;;;41.30;39.33;;;;;;;;;;4116356;28;20519;-61
2024/01/10 06:22:24;;;;;;;39.35;37.40;;;;;;;;;;4116278;28;20049;-62
2024/01/10 06:24:30;;;;;;;41.58;39.70;;;;;;;;;;4116640;28;20475;-61
2024/01/10 06:26:31;;;;;;;37.55;35.47;;;;;;;;;;4116414;28;20490;-61
2024/01/10 06:28:33;;;;;;;37.95;36.05;;;;;;;;;;4116750;28;20070;-61
2024/01/10 06:30:35;;;;;;;40.90;38.63;;;;;;;;;;4116418;28;20042;-62
2024/01/10 06:32:37;;;;;;;42.50;39.85;;;;;;;;;;4116702;28;20102;-61
2024/01/10 06:34:38;;;;;;;36.93;35.33;;;;;;;;;;4116632;28;20046;-61
2024/01/10 06:36:40;;;;;;;38.57;36.70;;;;;;;;;;4116376;28;20318;-61
2024/01/10 06:38:42;;;;;;;38.45;36.63;;;;;;;;;;4115634;28;20047;-60
2024/01/10 06:40:44;;;;;;;38.53;36.83;;;;;;;;;;4116557;28;20053;-59
2024/01/10 06:42:47;;;;;;;;;;;;;;;;;;4117010;28;20329;-59
2024/01/10 06:44:49;;;;;;;42.05;39.25;;;;;;;;;;4124429;28;19921;-59
2024/01/10 06:46:50;;;;;;;38.80;36.70;;;;;;;;;;4116422;28;20050;-59
2024/01/10 06:48:52;;;;;;;39.70;38.00;;;;;;;;;;4099453;29;20031;-59
2024/01/10 06:50:54;;;;;;;41.55;39.45;;;;;;;;;;4116286;28;20039;-59
2024/01/10 06:52:55;;;;;;;43.97;41.53;;;;;;;;;;4116270;28;20558;-59
2024/01/10 06:54:57;;;;;;;41.27;38.73;;;;;;;;;;4116155;28;20038;-59
2024/01/10 06:56:58;;;;;;;46.90;44.15;;;;;;;;;;4116091;28;20322;-59
2024/01/10 06:59:00;;;;;;;43.78;40.88;;;;;;;;;;4116272;28;20034;-59
2024/01/10 07:01:05;;;;;;;44.92;41.63;;;;;;;;;;4115043;28;20050;-59
2024/01/10 07:03:07;;;;;;;58.53;53.63;;;;;;;;;;4115722;28;20149;-59
2024/01/10 07:05:09;;;;;;;43.90;41.03;;;;;;;;;;4116206;28;20039;-59
2024/01/10 07:07:12;;;;;;;;;;;;;;;;;;4116638;28;20282;-59
2024/01/10 07:09:19;;;;;;;46.30;43.35;;;;;;;;;;4116065;28;20401;-59
2024/01/10 07:11:21;;;;;;;43.63;40.95;;;;;;;;;;4115796;28;20043;-59
2024/01/10 07:13:23;;;;;;;41.45;39.25;;;;;;;;;;4116194;28;20097;-58
2024/01/10 07:15:25;;;;;;;40.50;38.03;;;;;;;;;;4115949;28;20045;-59
2024/01/10 07:17:26;;;;;;;43.15;40.97;;;;;;;;;;4116126;28;20078;-59
2024/01/10 07:19:28;;;;;;;40.85;38.30;;;;;;;;;;4115878;28;20430;-60
2024/01/10 07:21:30;;;;;;;43.00;40.53;;;;;;;;;;4116080;28;20047;-59
2024/01/10 07:23:32;;;;;;;46.08;43.47;;;;;;;;;;4115935;28;20046;-59
2024/01/10 07:25:33;;;;;;;41.25;39.42;;;;;;;;;;4116150;28;20039;-59
2024/01/10 07:27:37;;;;;;;41.43;39.10;;;;;;;;;;4116048;28;20121;-59
2024/01/10 07:29:38;;;;;;;37.47;35.50;;;;;;;;;;4115376;28;20039;-59
2024/01/10 07:31:40;;;;;;;41.10;38.63;;;;;;;;;;4115973;28;20038;-60
2024/01/10 07:33:42;;;;;;;40.30;38.40;;;;;;;;;;4115712;28;20130;-60
2024/01/10 07:35:44;;;;;;;35.45;33.42;;;;;;;;;;4115950;28;20046;-59
2024/01/10 07:37:45;;;;;;;37.37;35.47;;;;;;;;;;4115944;28;20101;-59
2024/01/10 07:39:47;;;;;;;47.50;44.17;;;;;;;;;;4115612;28;20399;-59
2024/01/10 07:41:49;;;;;;;45.33;42.38;;;;;;;;;;4115432;28;20049;-59
2024/01/10 07:43:51;;;;;;;;;;;;;;;;;;4119793;28;20042;-59
2024/01/10 07:45:53;;;;;;;42.10;39.78;;;;;;;;;;4114188;28;19922;-59
2024/01/10 07:47:55;;;;;;;42.17;39.17;;;;;;;;;;4124348;28;20039;-59
2024/01/10 07:49:57;;;;;;;43.53;40.97;;;;;;;;;;4115752;28;20212;-59
2024/01/10 07:51:58;;;;;;;45.22;41.45;;;;;;;;;;4115533;28;20035;-59
2024/01/10 07:54:00;;;;;;;44.38;41.50;;;;;;;;;;4115393;28;20505;-59
2024/01/10 07:56:02;;;;;;;38.50;36.28;;;;;;;;;;4115298;28;20084;-59
2024/01/10 07:58:05;;;;;;;42.22;39.95;;;;;;;;;;4115384;28;20039;-59
2024/01/10 08:00:10;;;;;;;43.65;41.45;;;;;;;;;;4115625;28;20487;-59
2024/01/10 08:02:12;;;;;;;41.28;39.38;;;;;;;;;;4114910;28;20392;-59
2024/01/10 08:04:14;;;;;;;39.50;37.53;;;;;;;;;;4115607;28;20046;-60
2024/01/10 08:06:17;;;;;;;41.05;38.80;;;;;;;;;;4115580;28;20289;-59
2024/01/10 08:08:30;;;;;;;43.13;40.30;;;;;;;;;;4115342;28;20031;-60
2024/01/10 08:10:32;;;;;;;42.23;39.53;;;;;;;;;;4115294;28;20054;-59
2024/01/10 08:12:36;;;;;;;40.45;38.20;;;;;;;;;;4115413;28;20054;-59
2024/01/10 08:14:37;;;;;;;40.42;37.85;;;;;;;;;;4115319;28;20051;-59
2024/01/10 08:16:39;;;;;;;40.85;38.22;;;;;;;;;;4115252;28;20050;-59
2024/01/10 08:18:42;;;;;;;37.40;35.45;;;;;;;;;;4115490;28;20039;-59
2024/01/10 08:20:43;;;;;;;;;;;;;;;;;;4115917;28;20050;-59
2024/01/10 08:22:45;;;;;;;40.03;37.70;;;;;;;;;;4115542;28;19953;-59
2024/01/10 08:24:47;;;;;;;38.10;35.37;;;;;;;;;;4115215;28;20130;-59
2024/01/10 08:26:52;;;;;;;44.28;41.58;;;;;;;;;;4115517;28;20039;-59
2024/01/10 08:28:53;;;;;;;44.72;42.05;;;;;;;;;;4115403;28;20041;-59
2024/01/10 08:30:55;;;;;;;46.70;43.63;;;;;;;;;;4115105;28;20117;-59
2024/01/10 08:33:05;;;;;;;39.45;37.25;;;;;;;;;;4115232;28;20395;-59
2024/01/10 08:35:08;;;;;;;47.97;44.25;;;;;;;;;;4115252;28;20047;-60
2024/01/10 08:37:10;;;;;;;44.70;41.97;;;;;;;;;;4114992;28;20051;-59
2024/01/10 08:39:12;;;;;;;39.77;37.30;;;;;;;;;;4115458;28;20090;-59
2024/01/10 08:41:14;;;;;;;44.00;40.55;;;;;;;;;;4115378;28;20050;-59
2024/01/10 08:43:15;;;;;;;40.57;38.10;;;;;;;;;;4117948;28;20053;-60
2024/01/10 08:45:17;;;;;;;40.05;37.78;;;;;;;;;;4118050;28;20039;-59
2024/01/10 08:47:19;;;;;;;41.20;38.65;;;;;;;;;;4118230;28;20074;-59
2024/01/10 08:49:21;;;;;;;;;;;;;;;;;;4118790;28;20046;-59
2024/01/10 08:51:23;;;;;;;43.53;38.03;;;;;;;;;;4118168;28;19926;-60
2024/01/10 08:53:24;;;;;;;42.20;39.83;;;;;;;;;;4118338;28;20049;-60
2024/01/10 08:55:26;;;;;;;41.97;39.43;;;;;;;;;;4118288;28;20051;-59
2024/01/10 08:57:28;;;;;;;44.70;41.92;;;;;;;;;;4117008;28;20577;-61
2024/01/10 08:59:30;;;;;;;43.97;41.15;;;;;;;;;;4118379;28;20513;-59
2024/01/10 09:01:31;;;;;;;39.50;36.87;;;;;;;;;;4117539;28;20046;-59
2024/01/10 09:03:33;;;;;;;38.15;35.88;;;;;;;;;;4117632;28;20050;-59
2024/01/10 09:05:34;;;;;;;41.92;38.60;;;;;;;;;;4117925;28;20043;-59
2024/01/10 09:07:36;;;;;;;42.67;39.90;;;;;;;;;;4117897;28;20435;-60
2024/01/10 09:09:39;;;;;;;41.10;39.03;;;;;;;;;;4118088;28;20043;-59
2024/01/10 09:11:40;;;;;;;39.50;37.00;;;;;;;;;;4117789;28;20039;-59
2024/01/10 09:13:44;;;;;;;38.83;36.63;;;;;;;;;;4117956;28;20042;-59
2024/01/10 09:15:46;;;;;;;39.70;37.38;;;;;;;;;;4117993;28;20051;-60
2024/01/10 09:17:47;;;;;;;39.83;37.42;;;;;;;;;;4117759;28;20268;-59
2024/01/10 09:19:49;;;;;;;43.08;40.47;;;;;;;;;;4117752;28;20077;-59
2024/01/10 09:21:51;;;;;;;42.33;39.38;;;;;;;;;;4117880;28;20097;-59
2024/01/10 09:23:53;;;;;;;40.28;37.72;;;;;;;;;;4117855;28;20439;-59
2024/01/10 09:25:55;;;;;;;38.85;36.97;;;;;;;;;;4117613;28;20126;-59
2024/01/10 09:27:57;;;;;;;40.22;38.03;;;;;;;;;;4100500;28;20074;-59
2024/01/10 09:29:59;;;;;;;33.35;31.83;;;;;;;;;;4117522;28;20050;-59
2024/01/10 09:32:00;;;;;;;34.58;33.30;;;;;;;;;;4100346;29;20040;-59
2024/01/10 09:34:02;;;;;;;32.87;31.80;;;;;;;;;;4117507;28;20105;-59
2024/01/10 09:36:04;;;;;;;33.17;31.83;;;;;;;;;;4117440;28;20650;-60
2024/01/10 09:38:06;;;;;;;34.30;32.90;;;;;;;;;;4117466;28;20042;-59
2024/01/10 09:40:08;;;;;;;38.03;35.85;;;;;;;;;;4117061;28;20049;-59
2024/01/10 09:42:10;;;;;;;39.50;37.28;;;;;;;;;;4117413;28;20093;-59
2024/01/10 09:44:11;;;;;;;52.53;47.55;;;;;;;;;;4124057;28;20096;-59
2024/01/10 09:46:15;;;;;;;48.20;43.70;;;;;;;;;;4133554;28;20062;-59
2024/01/10 09:48:16;;;;;;;47.10;43.72;;;;;;;;;;4133585;28;20043;-60
2024/01/10 09:50:18;;;;;;;39.90;37.53;;;;;;;;;;4133470;28;20054;-59
2024/01/10 09:52:24;;;;;;;44.58;41.85;;;;;;;;;;4122355;28;20059;-59
2024/01/10 09:54:26;;;;;;;44.58;41.38;;;;;;;;;;4117390;28;20039;-59
2024/01/10 09:56:29;;;;;;;45.08;41.83;;;;;;;;;;4117085;28;20043;-60
2024/01/10 09:58:31;;;;;;;39.40;37.35;;;;;;;;;;4117126;28;20047;-60
2024/01/10 10:00:33;;;;;;;33.25;31.55;;;;;;;;;;4117028;28;20074;-59
2024/01/10 10:02:38;;;;;;;36.28;34.67;;;;;;;;;;4116619;28;20058;-60
2024/01/10 10:04:41;;;;;;;41.88;39.15;;;;;;;;;;4117004;28;20550;-60
2024/01/10 10:06:43;;;;;;;37.85;35.70;;;;;;;;;;4116840;28;20042;-60
2024/01/10 10:08:45;;;;;;;36.42;34.65;;;;;;;;;;4117209;28;20099;-59
2024/01/10 10:10:48;;;;;;;42.50;39.90;;;;;;;;;;4117166;28;20106;-60
2024/01/10 10:12:53;;;;;;;35.97;34.17;;;;;;;;;;4116936;28;20122;-59
2024/01/10 10:14:54;;;;;;;35.28;33.55;;;;;;;;;;4117111;28;20043;-59
2024/01/10 10:16:56;;;;;;;38.05;35.85;;;;;;;;;;4116780;28;20070;-60
2024/01/10 10:18:58;;;;;;;36.97;35.00;;;;;;;;;;4116802;28;20522;-60
2024/01/10 10:21:07;;;;;;;34.63;32.67;;;;;;;;;;4117069;28;20050;-60
2024/01/10 10:23:15;;;;;;;32.03;30.58;;;;;;;;;;4116663;28;20042;-59
2024/01/10 10:25:17;;;;;;;36.85;35.17;;;;;;;;;;4116834;28;20097;-60
2024/01/10 10:27:18;;;;;;;36.13;33.93;;;;;;;;;;4116735;28;20043;-60
2024/01/10 10:29:20;;;;;;;33.50;32.07;;;;;;;;;;4116568;28;20051;-60
2024/01/10 10:31:23;;;;;;;32.22;30.92;;;;;;;;;;4116634;28;20035;-60
2024/01/10 10:33:24;;;;;;;33.67;31.60;;;;;;;;;;4116610;28;20090;-59
2024/01/10 10:35:26;;;;;;;32.83;31.33;;;;;;;;;;4116676;28;20073;-60
2024/01/10 10:37:40;;;;;;;35.08;33.38;;;;;;;;;;4116320;28;20125;-59
2024/01/10 10:39:41;;;;;;;34.47;32.70;;;;;;;;;;4116615;28;20051;-59
2024/01/10 10:41:43;;;;;;;32.90;31.52;;;;;;;;;;4116002;28;20039;-60
2024/01/10 10:43:45;;;;;;;35.28;33.45;;;;;;;;;;4119371;28;20106;-60
2024/01/10 10:45:48;;;;;;;35.20;33.33;;;;;;;;;;4132371;28;20072;-60
2024/01/10 10:47:50;;;;;;;36.78;34.83;;;;;;;;;;4129588;28;20045;-59
2024/01/10 10:49:54;;;;;;;35.67;33.83;;;;;;;;;;4116322;28;20138;-60
2024/01/10 10:51:57;;;;;;;36.67;34.63;;;;;;;;;;4114934;28;20039;-60
2024/01/10 10:53:59;;;;;;;31.38;30.02;;;;;;;;;;4116371;28;20050;-60
2024/01/10 10:56:05;;;;;;;35.22;33.58;;;;;;;;;;4116188;28;20043;-60
2024/01/10 10:58:08;;;;;;;35.72;34.40;;;;;;;;;;4115676;28;20096;-61
2024/01/10 11:00:15;;;;;;;33.85;32.42;;;;;;;;;;4115755;28;20043;-60
2024/01/10 11:02:20;;;;;;;35.28;33.95;;;;;;;;;;4115375;28;20050;-59
2024/01/10 11:04:22;;;;;;;31.42;30.10;;;;;;;;;;4115249;28;20126;-59
2024/01/10 11:06:24;;;;;;;34.78;33.33;;;;;;;;;;4115206;28;20129;-60
2024/01/10 11:08:27;;;;;;;32.47;31.38;;;;;;;;;;4115674;28;20187;-60
2024/01/10 11:10:33;;;;;;;32.65;31.58;;;;;;;;;;4115637;28;20788;-60
2024/01/10 11:12:44;;;;;;;33.72;32.42;;;;;;;;;;4115710;28;20043;-59
2024/01/10 11:15:02;;;;;;;30.25;29.35;;;;;;;;;;4115333;28;20083;-60
2024/01/10 11:17:07;;;;;;;29.58;28.58;;;;;;;;;;4116133;28;20495;-60
2024/01/10 11:19:18;;;;;;;27.90;26.88;;;;;;;;;;4120968;28;20108;-59
2024/01/10 11:21:38;;;;;;;32.38;31.17;;;;;;;;;;4116310;28;20043;-60
2024/01/10 11:23:40;;;;;;;31.60;30.52;;;;;;;;;;4115707;28;20047;-60
2024/01/10 11:25:42;;;;;;;34.57;32.93;;;;;;;;;;4114942;28;20039;-59
2024/01/10 11:27:43;;;;;;;34.80;33.03;;;;;;;;;;4114708;28;20779;-60
2024/01/10 11:29:46;;;;;;;30.25;29.05;;;;;;;;;;4115799;28;20278;-60
2024/01/10 11:31:50;;;;;;;31.15;29.92;;;;;;;;;;4115934;28;20035;-60
2024/01/10 11:33:52;;;;;;;31.92;30.77;;;;;;;;;;4115060;28;20501;-60
2024/01/10 11:36:06;;;;;;;32.25;31.05;;;;;;;;;;4115513;28;20109;-60
2024/01/10 11:38:11;;;;;;;30.90;29.92;;;;;;;;;;4114837;28;20043;-59
2024/01/10 11:40:13;;;;;;;29.52;28.33;;;;;;;;;;4113773;28;20042;-60
2024/01/10 11:42:40;;;;;;;31.63;30.55;;;;;;;;;;4114146;28;20104;-60
2024/01/10 11:44:49;;;;;;;28.67;27.85;;;;;;;;;;4116031;28;20042;-60
2024/01/10 11:46:52;;;;;;;31.77;30.50;;;;;;;;;;4115039;28;20043;-59
2024/01/10 11:48:56;;;;;;;30.20;29.23;;;;;;;;;;4115274;28;20039;-59
2024/01/10 11:50:59;;;;;;;32.65;31.30;;;;;;;;;;4115245;28;20046;-59
2024/01/10 11:53:00;;;;;;;;;;;;;;;;;;4114868;28;20109;-60
2024/01/10 11:55:03;;;;;;;33.83;32.47;;;;;;;;;;4115040;28;19922;-60